Time;durP1;ratioP1;P1;durP2;ratioP2;P2;SDS_P1;SDS_P2;PMS_P1;PMS_P2;Temp;Humidity;BMP_temperature;BMP_pressure;BME280_temperature;BME280_humidity;BME280_pressure;Samples;Min_cycle;Max_cycle;Signal;HPM_P1;HPM_P2
2021/07/12 05:37:25;;;;;;;10.45;6.40;;;;;;;;;;5128594;27;20116;-64
2021/07/12 05:39:51;;;;;;;10.35;6.00;;;;;;;;;;5123542;28;20040;-63
2021/07/12 05:42:19;;;;;;;7.30;5.88;;;;;;;;;;5128832;28;20031;-65
2021/07/12 05:44:45;;;;;;;8.20;5.88;;;;;;;;;;5128302;27;20110;-67
2021/07/12 05:47:11;;;;;;;9.85;6.20;;;;;;;;;;5128534;28;20053;-65
2021/07/12 05:49:37;;;;;;;9.95;6.57;;;;;;;;;;5128532;28;20039;-57
2021/07/12 05:52:03;;;;;;;13.57;6.65;;;;;;;;;;5128726;28;20036;-66
2021/07/12 05:54:29;;;;;;;13.05;7.22;;;;;;;;;;5128042;28;20023;-62
2021/07/12 05:56:55;;;;;;;12.82;7.70;;;;;;;;;;5128730;28;20027;-56
2021/07/12 05:59:21;;;;;;;12.60;7.75;;;;;;;;;;5128120;28;20070;-55
2021/07/12 06:01:47;;;;;;;14.00;7.68;;;;;;;;;;5128853;28;20019;-56
2021/07/12 06:04:13;;;;;;;11.15;7.95;;;;;;;;;;5128208;28;20038;-60
2021/07/12 06:06:39;;;;;;;10.23;7.20;;;;;;;;;;5128300;28;20047;-62
2021/07/12 06:09:05;;;;;;;15.32;8.82;;;;;;;;;;5128376;28;20441;-57
2021/07/12 06:11:31;;;;;;;11.85;8.82;;;;;;;;;;5128273;28;20324;-61
2021/07/12 06:13:57;;;;;;;11.80;7.75;;;;;;;;;;5126615;28;20081;-64
2021/07/12 06:16:25;;;;;;;13.75;7.93;;;;;;;;;;5128226;28;20473;-65
2021/07/12 06:18:51;;;;;;;10.07;7.25;;;;;;;;;;5127837;27;20072;-56
2021/07/12 06:21:17;;;;;;;8.82;7.30;;;;;;;;;;5108744;28;20534;-59
2021/07/12 06:23:43;;;;;;;9.90;7.03;;;;;;;;;;5107611;28;20020;-57
2021/07/12 06:26:09;;;;;;;12.13;7.68;;;;;;;;;;5107396;28;20031;-58
2021/07/12 06:28:35;;;;;;;16.55;7.60;;;;;;;;;;5107461;28;20028;-57
2021/07/12 06:31:01;;;;;;;8.80;7.10;;;;;;;;;;5107133;28;20031;-62
2021/07/12 06:33:29;;;;;;;14.88;8.57;;;;;;;;;;5108197;28;20098;-60
2021/07/12 06:35:55;;;;;;;13.23;10.52;;;;;;;;;;5107325;28;20217;-62
2021/07/12 06:38:21;;;;;;;15.32;8.18;;;;;;;;;;5107418;28;20034;-58
2021/07/12 06:40:47;;;;;;;16.15;8.43;;;;;;;;;;5107798;28;20020;-57
2021/07/12 06:43:13;;;;;;;9.85;7.60;;;;;;;;;;5107462;28;20020;-64
2021/07/12 06:45:40;;;;;;;12.60;7.90;;;;;;;;;;5107275;28;20097;-57
2021/07/12 06:48:06;;;;;;;11.80;8.35;;;;;;;;;;5097634;28;20020;-58
2021/07/12 06:50:32;;;;;;;13.18;7.55;;;;;;;;;;5093829;28;20063;-58
2021/07/12 06:52:59;;;;;;;12.98;7.45;;;;;;;;;;5093794;28;20020;-57
2021/07/12 06:55:25;;;;;;;9.98;7.20;;;;;;;;;;5093855;28;20028;-59
2021/07/12 06:57:51;;;;;;;11.95;7.63;;;;;;;;;;5093672;28;20103;-61
2021/07/12 07:00:17;;;;;;;14.88;8.07;;;;;;;;;;5091793;28;20040;-58
2021/07/12 07:02:43;;;;;;;14.02;8.02;;;;;;;;;;5093563;28;20027;-60
2021/07/12 07:05:09;;;;;;;17.73;9.40;;;;;;;;;;5093092;28;20103;-57
2021/07/12 07:07:36;;;;;;;17.30;9.75;;;;;;;;;;5093611;28;20036;-57
2021/07/12 07:10:03;;;;;;;11.35;8.52;;;;;;;;;;5093378;28;20032;-63
2021/07/12 07:12:29;;;;;;;13.63;8.80;;;;;;;;;;5093519;28;20541;-60
2021/07/12 07:14:56;;;;;;;12.07;8.75;;;;;;;;;;5091239;28;20040;-59
2021/07/12 07:17:22;;;;;;;11.80;9.20;;;;;;;;;;5093443;28;20020;-57
2021/07/12 07:19:48;;;;;;;13.40;7.97;;;;;;;;;;5093371;28;20133;-62
2021/07/12 07:22:14;;;;;;;12.65;8.68;;;;;;;;;;5093471;28;20020;-65
2021/07/12 07:24:40;;;;;;;13.10;8.77;;;;;;;;;;5093031;28;20063;-61
2021/07/12 07:27:06;;;;;;;14.57;10.85;;;;;;;;;;5093071;28;20028;-64
2021/07/12 07:29:32;;;;;;;13.88;9.07;;;;;;;;;;5092583;28;20016;-63
2021/07/12 07:31:58;;;;;;;13.00;9.60;;;;;;;;;;5093191;28;20035;-65
2021/07/12 07:34:25;;;;;;;13.02;9.82;;;;;;;;;;5093187;28;20059;-59
2021/07/12 07:36:51;;;;;;;10.90;9.05;;;;;;;;;;5092862;28;20410;-60
2021/07/12 07:39:17;;;;;;;12.18;9.18;;;;;;;;;;5091789;28;20024;-61
2021/07/12 07:41:43;;;;;;;15.07;8.38;;;;;;;;;;5091821;28;20032;-62
2021/07/12 07:44:09;;;;;;;14.95;9.52;;;;;;;;;;5092496;28;20383;-66
2021/07/12 07:46:35;;;;;;;12.82;10.02;;;;;;;;;;5092539;28;20131;-66
2021/07/12 07:49:04;;;;;;;13.32;9.23;;;;;;;;;;5092853;28;20456;-60
2021/07/12 07:51:30;;;;;;;12.65;8.88;;;;;;;;;;5092701;28;20024;-67
2021/07/12 07:53:56;;;;;;;12.48;7.53;;;;;;;;;;5092658;28;20051;-80
2021/07/12 07:56:22;;;;;;;14.35;8.45;;;;;;;;;;5092615;28;20042;-72
2021/07/12 07:58:48;;;;;;;12.68;8.20;;;;;;;;;;5091889;28;20020;-68
2021/07/12 08:01:14;;;;;;;13.02;8.50;;;;;;;;;;5092631;28;20080;-66
2021/07/12 08:03:40;;;;;;;13.02;8.77;;;;;;;;;;5092507;28;20055;-70
2021/07/12 08:06:06;;;;;;;14.32;9.57;;;;;;;;;;5092597;28;20044;-68
2021/07/12 08:08:32;;;;;;;16.25;8.27;;;;;;;;;;5092273;28;20372;-66
2021/07/12 08:10:58;;;;;;;10.88;8.20;;;;;;;;;;5092118;28;20032;-66
2021/07/12 08:13:24;;;;;;;12.35;8.52;;;;;;;;;;5092126;28;20395;-62
2021/07/12 08:15:51;;;;;;;11.30;8.07;;;;;;;;;;5091833;28;20433;-62
2021/07/12 08:18:17;;;;;;;12.43;9.55;;;;;;;;;;5092061;28;20024;-65
2021/07/12 08:20:45;;;;;;;13.73;7.03;;;;;;;;;;5091904;28;20024;-59
2021/07/12 08:23:13;;;;;;;15.73;7.53;;;;;;;;;;5091809;28;20483;-59
2021/07/12 08:25:39;;;;;;;13.70;8.57;;;;;;;;;;5091734;28;20040;-57
2021/07/12 08:28:06;;;;;;;14.98;8.60;;;;;;;;;;5092012;28;20035;-59
2021/07/12 08:30:32;;;;;;;14.32;7.10;;;;;;;;;;5091671;28;20509;-63
2021/07/12 08:32:58;;;;;;;12.68;7.72;;;;;;;;;;5091578;28;20410;-57
2021/07/12 08:35:24;;;;;;;13.98;7.40;;;;;;;;;;5091504;28;20051;-64
2021/07/12 08:37:50;;;;;;;11.18;7.45;;;;;;;;;;5092033;28;20532;-59
2021/07/12 08:40:18;;;;;;;12.82;8.20;;;;;;;;;;5091428;28;20089;-59
2021/07/12 08:42:44;;;;;;;12.68;8.45;;;;;;;;;;5091623;28;20371;-60
2021/07/12 08:45:10;;;;;;;14.10;8.07;;;;;;;;;;5091453;28;20024;-72
2021/07/12 08:47:37;;;;;;;15.57;7.60;;;;;;;;;;5091500;28;20046;-64
2021/07/12 17:48:35;;;;;;;13.70;9.43;;;;;;;;;;5066964;28;20959;-66
2021/07/12 17:51:01;;;;;;;15.40;10.25;;;;;;;;;;5067504;28;20044;-61
2021/07/12 17:53:27;;;;;;;18.08;10.98;;;;;;;;;;5068023;28;20104;-62
2021/07/12 17:55:53;;;;;;;15.30;10.35;;;;;;;;;;5067567;28;20032;-62
2021/07/12 17:58:20;;;;;;;13.25;9.88;;;;;;;;;;5067675;28;20383;-61
2021/07/12 18:00:46;;;;;;;13.68;10.48;;;;;;;;;;5067316;28;20029;-58
2021/07/12 18:03:12;;;;;;;17.52;9.98;;;;;;;;;;5067752;28;20027;-64
2021/07/12 18:05:38;;;;;;;13.10;9.20;;;;;;;;;;5067522;28;20028;-61
2021/07/12 18:08:04;;;;;;;10.25;8.95;;;;;;;;;;5067545;28;20072;-63
2021/07/12 18:10:30;;;;;;;12.73;9.45;;;;;;;;;;5067487;28;20123;-61
2021/07/12 18:12:56;;;;;;;11.65;9.65;;;;;;;;;;5067306;28;20112;-61
2021/07/12 18:15:23;;;;;;;14.93;9.85;;;;;;;;;;5067537;28;20043;-59
2021/07/12 18:17:49;;;;;;;17.30;10.00;;;;;;;;;;5067794;28;20040;-60
2021/07/12 18:20:16;;;;;;;11.30;9.82;;;;;;;;;;5067322;28;20033;-60
2021/07/12 18:22:43;;;;;;;15.65;9.73;;;;;;;;;;5067537;28;20029;-59
2021/07/12 18:25:09;;;;;;;12.80;9.88;;;;;;;;;;5067328;28;20083;-67
2021/07/12 18:27:35;;;;;;;10.90;9.23;;;;;;;;;;5066844;28;20113;-67
2021/07/12 18:30:02;;;;;;;11.38;9.40;;;;;;;;;;5065967;28;20028;-68
2021/07/12 18:32:29;;;;;;;12.55;9.43;;;;;;;;;;5067086;28;20044;-63
2021/07/12 18:34:55;;;;;;;15.60;9.65;;;;;;;;;;5066774;28;20016;-66
2021/07/12 18:37:22;;;;;;;14.20;9.45;;;;;;;;;;5067259;28;20028;-66
2021/07/12 18:39:48;;;;;;;12.50;9.60;;;;;;;;;;5067180;28;20051;-66
2021/07/12 18:42:14;;;;;;;15.30;9.95;;;;;;;;;;5066846;28;20090;-66
2021/07/12 18:44:40;;;;;;;15.55;10.02;;;;;;;;;;5066644;28;20025;-66
2021/07/12 18:47:07;;;;;;;14.10;9.80;;;;;;;;;;5064885;28;20049;-66
2021/07/12 18:49:34;;;;;;;13.65;9.60;;;;;;;;;;5066218;28;20020;-66
2021/07/12 18:52:02;;;;;;;15.23;9.90;;;;;;;;;;5065849;28;20029;-64
2021/07/12 18:54:29;;;;;;;13.45;10.15;;;;;;;;;;5066370;28;20029;-68
2021/07/12 18:56:55;;;;;;;16.73;10.40;;;;;;;;;;5066384;28;20035;-67
2021/07/12 18:59:22;;;;;;;12.55;9.50;;;;;;;;;;5056107;28;20033;-63
2021/07/12 19:01:48;;;;;;;12.13;9.45;;;;;;;;;;5053315;28;20065;-66
2021/07/12 19:04:14;;;;;;;17.50;10.30;;;;;;;;;;5053173;28;20541;-67
2021/07/12 19:06:40;;;;;;;12.98;9.82;;;;;;;;;;5052859;28;20060;-65
2021/07/12 19:09:06;;;;;;;15.02;9.60;;;;;;;;;;5048205;28;20025;-65
2021/07/12 19:11:33;;;;;;;14.02;9.77;;;;;;;;;;5053170;28;20500;-62
2021/07/12 19:13:59;;;;;;;16.35;9.70;;;;;;;;;;5052978;28;20032;-62
2021/07/12 19:16:25;;;;;;;19.50;10.05;;;;;;;;;;5053118;28;20029;-66
2021/07/12 19:18:52;;;;;;;13.82;10.15;;;;;;;;;;5052707;28;20128;-62
2021/07/12 19:21:18;;;;;;;17.73;10.25;;;;;;;;;;5052794;28;20029;-65
2021/07/12 19:23:44;;;;;;;12.70;9.60;;;;;;;;;;5052561;28;20029;-63
2021/07/12 19:26:10;;;;;;;14.25;11.30;;;;;;;;;;5052883;28;20036;-64
2021/07/12 19:28:37;;;;;;;13.02;10.35;;;;;;;;;;5052794;28;20028;-63
2021/07/12 19:31:03;;;;;;;15.98;10.70;;;;;;;;;;5052049;28;20126;-62
2021/07/12 19:33:30;;;;;;;15.02;10.20;;;;;;;;;;5049620;28;20575;-69
2021/07/12 19:35:57;;;;;;;15.40;10.90;;;;;;;;;;5049596;28;20025;-69
2021/07/12 19:38:25;;;;;;;14.15;9.80;;;;;;;;;;5049640;28;20028;-66
2021/07/12 19:40:51;;;;;;;17.52;10.50;;;;;;;;;;5049449;28;20067;-64
2021/07/12 19:43:19;;;;;;;15.55;9.73;;;;;;;;;;5049305;28;20021;-65
2021/07/12 19:45:45;;;;;;;15.60;10.52;;;;;;;;;;5053678;28;20036;-67
2021/07/12 19:48:11;;;;;;;13.80;10.18;;;;;;;;;;5054487;28;20140;-68
2021/07/12 19:50:39;;;;;;;14.32;10.25;;;;;;;;;;5052669;28;20021;-65
2021/07/12 19:53:05;;;;;;;12.70;10.38;;;;;;;;;;5052733;28;20021;-64
2021/07/12 19:55:36;;;;;;;18.23;11.32;;;;;;;;;;5054201;28;20658;-64
2021/07/12 19:58:04;;;;;;;15.05;11.13;;;;;;;;;;5052844;28;20266;-68
2021/07/12 20:00:32;;;;;;;12.88;10.57;;;;;;;;;;5051966;28;20029;-67
2021/07/12 20:03:04;;;;;;;15.45;9.73;;;;;;;;;;5051987;28;20142;-67
2021/07/12 20:05:30;;;;;;;16.30;10.35;;;;;;;;;;5050704;28;20033;-66
2021/07/12 20:07:56;;;;;;;14.32;10.88;;;;;;;;;;5051743;28;20043;-66
2021/07/12 20:10:22;;;;;;;19.20;11.18;;;;;;;;;;5051867;28;20502;-67
2021/07/12 20:12:49;;;;;;;18.25;11.93;;;;;;;;;;5052390;28;20037;-66
2021/07/12 20:15:15;;;;;;;15.82;11.30;;;;;;;;;;5052062;28;20035;-67
2021/07/12 20:17:43;;;;;;;17.20;11.50;;;;;;;;;;5052233;28;20487;-67
2021/07/12 20:20:10;;;;;;;18.88;11.93;;;;;;;;;;5051986;28;20534;-67
2021/07/12 20:22:39;;;;;;;18.90;12.57;;;;;;;;;;5051601;28;20052;-66
2021/07/12 20:25:06;;;;;;;18.45;12.52;;;;;;;;;;5051570;28;20052;-66
2021/07/12 20:27:32;;;;;;;17.77;11.77;;;;;;;;;;5052289;28;20037;-68
2021/07/12 20:29:58;;;;;;;16.98;11.40;;;;;;;;;;5051889;28;20021;-67
2021/07/12 20:32:24;;;;;;;18.55;12.70;;;;;;;;;;5051698;28;20052;-67
2021/07/12 20:34:51;;;;;;;22.20;12.07;;;;;;;;;;5051651;28;20104;-67
2021/07/12 20:37:17;;;;;;;18.58;12.52;;;;;;;;;;5051431;28;20024;-68
2021/07/12 20:39:43;;;;;;;16.55;11.82;;;;;;;;;;5051534;28;20021;-67
2021/07/12 20:42:09;;;;;;;15.45;11.55;;;;;;;;;;5051926;28;20075;-68
2021/07/12 20:44:35;;;;;;;19.02;12.65;;;;;;;;;;5051453;28;20031;-67
2021/07/12 20:47:01;;;;;;;16.92;12.23;;;;;;;;;;5051042;28;20053;-69
2021/07/12 20:49:27;;;;;;;20.35;13.02;;;;;;;;;;5051293;28;20028;-66
2021/07/12 20:51:53;;;;;;;19.70;12.65;;;;;;;;;;5051357;28;20075;-66
2021/07/12 20:54:19;;;;;;;20.85;12.40;;;;;;;;;;5049699;28;20043;-65
2021/07/12 20:56:45;;;;;;;21.40;12.63;;;;;;;;;;5051163;28;20051;-65
2021/07/12 20:59:11;;;;;;;18.58;12.32;;;;;;;;;;5051823;28;20029;-67
2021/07/12 21:01:37;;;;;;;21.58;12.48;;;;;;;;;;5051452;28;20414;-66
2021/07/12 21:04:03;;;;;;;16.95;11.55;;;;;;;;;;5051424;28;20091;-66
2021/07/12 21:06:30;;;;;;;20.00;10.95;;;;;;;;;;5050130;28;20099;-67
2021/07/12 21:08:56;;;;;;;15.32;11.52;;;;;;;;;;5048439;28;20040;-68
2021/07/12 21:11:22;;;;;;;18.08;10.55;;;;;;;;;;5050673;28;20040;-68
2021/07/12 21:13:48;;;;;;;16.23;10.75;;;;;;;;;;5051196;28;20519;-69
2021/07/12 21:16:14;;;;;;;15.23;10.20;;;;;;;;;;5050863;28;20033;-68
2021/07/12 21:18:46;;;;;;;13.98;10.25;;;;;;;;;;5051227;28;20056;-66
2021/07/12 21:21:15;;;;;;;14.05;10.85;;;;;;;;;;5050594;28;20071;-67
2021/07/12 21:23:42;;;;;;;16.65;10.43;;;;;;;;;;5050820;28;20029;-66
2021/07/12 21:26:08;;;;;;;16.90;10.75;;;;;;;;;;5050447;28;20032;-66
2021/07/12 21:28:34;;;;;;;15.73;10.50;;;;;;;;;;5050603;28;20604;-68
2021/07/12 21:31:01;;;;;;;13.90;10.18;;;;;;;;;;5049587;28;20086;-67
2021/07/12 21:33:27;;;;;;;14.68;10.32;;;;;;;;;;5050682;28;20104;-67
2021/07/12 21:35:53;;;;;;;15.82;10.70;;;;;;;;;;5050581;28;20024;-66
2021/07/12 21:38:20;;;;;;;19.73;10.88;;;;;;;;;;5050505;28;20055;-66
2021/07/12 21:40:46;;;;;;;15.70;10.45;;;;;;;;;;5050530;28;20067;-66
2021/07/12 21:43:12;;;;;;;14.13;11.00;;;;;;;;;;5050543;28;20025;-65
2021/07/12 21:45:38;;;;;;;15.38;10.55;;;;;;;;;;5050310;28;20433;-65
2021/07/12 21:48:04;;;;;;;16.30;11.20;;;;;;;;;;5050414;28;20099;-65
2021/07/12 21:50:31;;;;;;;15.80;11.00;;;;;;;;;;5050809;28;20383;-64
2021/07/12 21:52:57;;;;;;;18.65;11.65;;;;;;;;;;5050340;28;20037;-64
2021/07/12 21:55:23;;;;;;;14.77;10.90;;;;;;;;;;5050678;28;20025;-65
2021/07/12 21:57:50;;;;;;;15.70;10.98;;;;;;;;;;5050966;28;20393;-63
2021/07/12 22:00:17;;;;;;;16.80;10.50;;;;;;;;;;5050651;28;20021;-64
2021/07/12 22:02:44;;;;;;;16.48;10.70;;;;;;;;;;5049346;28;20463;-65
2021/07/12 22:05:11;;;;;;;16.35;10.35;;;;;;;;;;5051078;28;20408;-65
2021/07/12 22:07:37;;;;;;;17.00;10.55;;;;;;;;;;5051632;28;20375;-65
2021/07/12 22:10:15;;;;;;;16.58;11.13;;;;;;;;;;5050652;28;20490;-65
2021/07/12 22:12:41;;;;;;;17.02;10.23;;;;;;;;;;5052281;28;20033;-64
